Time;durP1;ratioP1;P1;durP2;ratioP2;P2;SDS_P1;SDS_P2;PMS_P1;PMS_P2;Temp;Humidity;BMP_temperature;BMP_pressure;BME280_temperature;BME280_humidity;BME280_pressure;Samples;Min_cycle;Max_cycle;Signal;HPM_P1;HPM_P2
2023/07/16 00:02:01;;;;;;;15.43;7.60;;;;;;;;;;6116996;23;20009;-69
2023/07/16 00:04:27;;;;;;;17.50;7.88;;;;;;;;;;6118959;23;20416;-68
2023/07/16 00:06:53;;;;;;;16.30;7.65;;;;;;;;;;6093164;23;20016;-68
2023/07/16 00:09:19;;;;;;;14.93;7.40;;;;;;;;;;6125339;23;20414;-68
2023/07/16 00:11:44;;;;;;;14.50;7.47;;;;;;;;;;6146712;23;20084;-68
2023/07/16 00:14:12;;;;;;;12.98;7.10;;;;;;;;;;6147553;23;20010;-69
2023/07/16 00:16:37;;;;;;;25.77;7.25;;;;;;;;;;6148415;23;20404;-69
2023/07/16 00:19:03;;;;;;;15.63;6.65;;;;;;;;;;6148291;23;20020;-69
2023/07/16 00:21:29;;;;;;;16.30;7.60;;;;;;;;;;6147606;23;20001;-69
2023/07/16 00:23:55;;;;;;;13.30;6.85;;;;;;;;;;6122210;23;20014;-69
2023/07/16 00:26:21;;;;;;;14.23;6.72;;;;;;;;;;6148395;23;20143;-69
2023/07/16 00:28:47;;;;;;;19.65;7.35;;;;;;;;;;6171036;23;20017;-69
2023/07/16 00:31:14;;;;;;;17.65;8.02;;;;;;;;;;6148361;23;20002;-68
2023/07/16 00:33:39;;;;;;;13.90;7.05;;;;;;;;;;6152877;23;20398;-69
2023/07/16 00:36:05;;;;;;;11.30;6.57;;;;;;;;;;6152557;23;20010;-69
2023/07/16 00:38:31;;;;;;;13.38;6.90;;;;;;;;;;6121867;23;20022;-70
2023/07/16 00:40:57;;;;;;;11.43;6.68;;;;;;;;;;6123221;23;20005;-70
2023/07/16 00:43:22;;;;;;;16.63;7.38;;;;;;;;;;6147043;23;20399;-69
2023/07/16 00:45:49;;;;;;;19.13;7.90;;;;;;;;;;6122385;23;20048;-69
2023/07/16 00:48:15;;;;;;;14.18;6.90;;;;;;;;;;6122216;23;20033;-69
2023/07/16 00:50:41;;;;;;;10.82;6.93;;;;;;;;;;6148576;23;20025;-69
2023/07/16 00:53:08;;;;;;;12.63;7.55;;;;;;;;;;6147958;23;20431;-70
2023/07/16 00:55:35;;;;;;;18.98;7.25;;;;;;;;;;6147586;23;20005;-69
2023/07/16 00:58:06;;;;;;;13.90;6.65;;;;;;;;;;6123089;23;20092;-69
2023/07/16 01:00:34;;;;;;;18.48;7.15;;;;;;;;;;6123130;23;20022;-69
2023/07/16 01:03:02;;;;;;;19.67;7.20;;;;;;;;;;6147721;23;20424;-69
2023/07/16 01:05:34;;;;;;;14.20;6.95;;;;;;;;;;6171055;22;20010;-69
2023/07/16 01:08:04;;;;;;;11.38;6.93;;;;;;;;;;6171022;23;20100;-69
2023/07/16 01:10:31;;;;;;;15.85;7.20;;;;;;;;;;6121979;23;19997;-68
2023/07/16 01:12:57;;;;;;;18.33;6.78;;;;;;;;;;6147776;22;20056;-69
2023/07/16 01:15:24;;;;;;;14.00;6.70;;;;;;;;;;6146220;23;20013;-69
2023/07/16 01:17:50;;;;;;;16.75;7.35;;;;;;;;;;6146127;23;20439;-69
2023/07/16 01:20:15;;;;;;;14.57;7.90;;;;;;;;;;6147465;22;20008;-69
2023/07/16 01:23:03;;;;;;;12.10;7.05;;;;;;;;;;6170672;23;20021;-69
2023/07/16 01:25:48;;;;;;;17.90;8.15;;;;;;;;;;6145817;23;20014;-69
2023/07/16 01:28:31;;;;;;;19.90;8.43;;;;;;;;;;6146475;23;20389;-68
2023/07/16 01:30:58;;;;;;;13.07;7.55;;;;;;;;;;6147327;23;20013;-69
2023/07/16 01:33:26;;;;;;;18.67;7.88;;;;;;;;;;6147030;23;20006;-70
2023/07/16 01:35:52;;;;;;;14.32;7.97;;;;;;;;;;6121512;23;20104;-69
2023/07/16 01:38:20;;;;;;;15.30;7.95;;;;;;;;;;6147388;23;20047;-69
2023/07/16 01:40:47;;;;;;;21.48;7.65;;;;;;;;;;6147233;23;20006;-69
2023/07/16 01:43:13;;;;;;;14.25;7.00;;;;;;;;;;6169907;23;20040;-69
2023/07/16 01:45:39;;;;;;;14.90;7.25;;;;;;;;;;6147666;22;20378;-69
2023/07/16 01:48:33;;;;;;;17.05;7.28;;;;;;;;;;6120930;23;20010;-69
2023/07/16 01:50:59;;;;;;;15.80;7.55;;;;;;;;;;6147505;23;20447;-69
2023/07/16 01:53:25;;;;;;;16.17;7.50;;;;;;;;;;6121084;23;20009;-69
2023/07/16 01:55:51;;;;;;;13.57;7.25;;;;;;;;;;6147290;23;20098;-69
2023/07/16 01:58:17;;;;;;;17.58;6.38;;;;;;;;;;6121148;23;20001;-69
2023/07/16 02:00:43;;;;;;;12.52;7.03;;;;;;;;;;6121390;23;20013;-68
2023/07/16 02:03:09;;;;;;;17.38;6.85;;;;;;;;;;6145274;23;20020;-69
2023/07/16 02:05:34;;;;;;;17.77;7.90;;;;;;;;;;6121092;23;20334;-69
2023/07/16 02:08:00;;;;;;;13.32;6.70;;;;;;;;;;6120885;23;20014;-69
2023/07/16 02:10:26;;;;;;;13.90;7.07;;;;;;;;;;6147241;23;20052;-69
2023/07/16 02:12:52;;;;;;;12.90;7.00;;;;;;;;;;6146689;23;20008;-69
2023/07/16 02:15:17;;;;;;;12.38;7.57;;;;;;;;;;6147515;23;20020;-70
2023/07/16 02:17:44;;;;;;;12.65;6.55;;;;;;;;;;6121011;23;20033;-69
2023/07/16 02:20:10;;;;;;;18.38;7.68;;;;;;;;;;6145650;23;20052;-69
2023/07/16 02:22:38;;;;;;;14.73;7.80;;;;;;;;;;6146707;23;19998;-69
2023/07/16 02:25:04;;;;;;;10.63;7.07;;;;;;;;;;6147113;22;20013;-70
2023/07/16 02:27:30;;;;;;;13.35;7.40;;;;;;;;;;6147253;23;20032;-69
2023/07/16 02:29:56;;;;;;;15.80;7.45;;;;;;;;;;6121322;23;20018;-69
2023/07/16 02:32:22;;;;;;;13.57;7.30;;;;;;;;;;6146872;23;20120;-69
2023/07/16 02:34:47;;;;;;;20.55;7.85;;;;;;;;;;6145581;23;20018;-70
2023/07/16 02:37:13;;;;;;;15.70;8.45;;;;;;;;;;6148062;22;20256;-69
2023/07/16 02:39:41;;;;;;;16.67;8.32;;;;;;;;;;6122196;23;20047;-69
2023/07/16 02:42:08;;;;;;;11.23;6.93;;;;;;;;;;6148458;22;20084;-69
2023/07/16 02:44:38;;;;;;;12.85;7.38;;;;;;;;;;6122143;22;20014;-69
2023/07/16 02:47:04;;;;;;;14.10;7.55;;;;;;;;;;6148323;23;20013;-69
2023/07/16 02:49:30;;;;;;;13.77;6.82;;;;;;;;;;6147558;23;20101;-69
2023/07/16 02:51:57;;;;;;;11.95;6.80;;;;;;;;;;6148809;23;20332;-68
2023/07/16 02:54:22;;;;;;;14.80;7.38;;;;;;;;;;6123026;23;20017;-68
2023/07/16 02:56:48;;;;;;;12.70;7.30;;;;;;;;;;6151216;23;20095;-68
2023/07/16 02:59:14;;;;;;;20.73;8.07;;;;;;;;;;6151104;23;20386;-68
2023/07/16 03:01:39;;;;;;;12.90;7.20;;;;;;;;;;6124649;23;20055;-69
2023/07/16 03:04:05;;;;;;;13.57;7.25;;;;;;;;;;6125685;23;20017;-69
2023/07/16 03:06:31;;;;;;;19.00;7.68;;;;;;;;;;6124788;23;20014;-68
2023/07/16 03:08:57;;;;;;;16.20;7.68;;;;;;;;;;6151263;23;20012;-68
2023/07/16 03:11:23;;;;;;;15.43;7.93;;;;;;;;;;6150404;23;19998;-69
2023/07/16 03:13:49;;;;;;;12.57;7.60;;;;;;;;;;6100155;23;20020;-68
2023/07/16 03:16:14;;;;;;;15.40;8.10;;;;;;;;;;6149276;23;20091;-68
2023/07/16 03:18:40;;;;;;;13.15;7.18;;;;;;;;;;6124759;23;20009;-68
2023/07/16 03:21:07;;;;;;;14.05;7.57;;;;;;;;;;6150986;23;20381;-69
2023/07/16 03:23:33;;;;;;;12.63;7.43;;;;;;;;;;6173762;23;20063;-70
2023/07/16 03:25:59;;;;;;;13.98;6.90;;;;;;;;;;6150763;23;20006;-69
2023/07/16 03:28:25;;;;;;;16.35;7.80;;;;;;;;;;6124716;23;20037;-69
2023/07/16 03:30:51;;;;;;;14.10;7.40;;;;;;;;;;6124978;23;20139;-69
2023/07/16 03:33:18;;;;;;;14.38;7.90;;;;;;;;;;6124699;23;20037;-69
2023/07/16 03:35:45;;;;;;;15.65;7.68;;;;;;;;;;6124790;23;20012;-68
2023/07/16 03:38:12;;;;;;;11.32;7.88;;;;;;;;;;6173801;23;20060;-68
2023/07/16 03:40:38;;;;;;;10.65;7.07;;;;;;;;;;6148197;23;20056;-69
2023/07/16 03:43:06;;;;;;;17.77;8.25;;;;;;;;;;6123990;23;20070;-69
2023/07/16 03:45:32;;;;;;;13.55;7.80;;;;;;;;;;6123989;23;20005;-68
2023/07/16 03:47:58;;;;;;;12.60;7.72;;;;;;;;;;6124143;23;20350;-68
2023/07/16 03:50:24;;;;;;;14.25;7.68;;;;;;;;;;6124660;23;20029;-68
2023/07/16 03:52:50;;;;;;;15.57;7.18;;;;;;;;;;6150165;23;20067;-69
2023/07/16 03:55:16;;;;;;;17.15;7.65;;;;;;;;;;6150475;23;20001;-69
2023/07/16 03:57:42;;;;;;;14.13;8.15;;;;;;;;;;6148872;23;20431;-68
2023/07/16 04:00:09;;;;;;;16.25;8.10;;;;;;;;;;6124256;23;20013;-68
2023/07/16 04:02:41;;;;;;;17.52;7.30;;;;;;;;;;6150623;23;20474;-69
2023/07/16 04:05:11;;;;;;;11.93;7.18;;;;;;;;;;6149417;23;20052;-68
2023/07/16 04:07:37;;;;;;;14.20;7.90;;;;;;;;;;6124393;23;20382;-68
2023/07/16 04:10:03;;;;;;;18.60;6.72;;;;;;;;;;6150442;23;20002;-68
2023/07/16 04:12:28;;;;;;;16.83;7.57;;;;;;;;;;6150246;23;20012;-68
2023/07/16 04:14:56;;;;;;;10.23;6.60;;;;;;;;;;6150426;23;20047;-68
2023/07/16 04:17:22;;;;;;;14.77;6.82;;;;;;;;;;6150261;23;20011;-69
2023/07/16 04:19:48;;;;;;;15.15;7.10;;;;;;;;;;6124320;23;20002;-68
2023/07/16 04:22:14;;;;;;;14.73;6.95;;;;;;;;;;6150333;22;20039;-70
2023/07/16 04:24:39;;;;;;;15.23;6.53;;;;;;;;;;6124782;23;20002;-69
2023/07/16 04:27:05;;;;;;;15.23;6.47;;;;;;;;;;6150511;23;20009;-69
2023/07/16 04:29:31;;;;;;;12.43;6.72;;;;;;;;;;6150552;22;20010;-69
2023/07/16 04:31:57;;;;;;;12.65;7.32;;;;;;;;;;6149820;22;20076;-68
2023/07/16 04:34:22;;;;;;;15.30;6.75;;;;;;;;;;6150549;23;20062;-69
2023/07/16 04:36:48;;;;;;;16.08;6.50;;;;;;;;;;6150742;22;20029;-68
2023/07/16 04:39:14;;;;;;;11.40;6.22;;;;;;;;;;6150796;23;20480;-69
2023/07/16 04:41:39;;;;;;;16.13;6.72;;;;;;;;;;6150599;23;20017;-69
2023/07/16 04:44:06;;;;;;;11.68;6.78;;;;;;;;;;6150452;23;20001;-69
2023/07/16 04:46:32;;;;;;;10.15;6.28;;;;;;;;;;6150421;23;20021;-68
2023/07/16 04:48:57;;;;;;;14.30;7.07;;;;;;;;;;6150778;23;20073;-69
2023/07/16 04:51:23;;;;;;;14.85;6.45;;;;;;;;;;6150796;23;20010;-68
2023/07/16 04:53:49;;;;;;;13.68;6.10;;;;;;;;;;6150111;23;20019;-69
2023/07/16 04:56:16;;;;;;;10.18;6.00;;;;;;;;;;6150483;22;20013;-69
2023/07/16 04:58:42;;;;;;;7.93;5.57;;;;;;;;;;6149897;23;20013;-68
2023/07/16 05:01:09;;;;;;;10.85;5.00;;;;;;;;;;6150367;22;20464;-69
2023/07/16 05:03:35;;;;;;;8.75;4.70;;;;;;;;;;6150007;23;20001;-69
2023/07/16 05:06:01;;;;;;;9.18;4.88;;;;;;;;;;6124621;23;20084;-69
2023/07/16 05:08:27;;;;;;;7.00;4.88;;;;;;;;;;6150419;23;19998;-69
2023/07/16 05:10:52;;;;;;;14.57;5.35;;;;;;;;;;6150481;23;20304;-68
2023/07/16 05:13:18;;;;;;;13.15;5.45;;;;;;;;;;6150195;22;20395;-68
2023/07/16 05:15:44;;;;;;;10.82;5.28;;;;;;;;;;6150498;23;20078;-68
2023/07/16 05:18:10;;;;;;;11.48;5.28;;;;;;;;;;6150573;23;20001;-69
2023/07/16 05:20:36;;;;;;;17.58;5.88;;;;;;;;;;6150559;23;20435;-70
2023/07/16 05:23:02;;;;;;;18.20;6.03;;;;;;;;;;6149923;23;20093;-69
2023/07/16 05:25:27;;;;;;;7.28;4.90;;;;;;;;;;6150243;23;20086;-69
2023/07/16 05:27:53;;;;;;;13.38;5.18;;;;;;;;;;6124557;23;20072;-69
2023/07/16 05:30:19;;;;;;;11.23;5.28;;;;;;;;;;6150051;23;20398;-69
2023/07/16 05:32:45;;;;;;;11.27;5.45;;;;;;;;;;6149976;23;20009;-69
2023/07/16 05:35:10;;;;;;;10.35;5.13;;;;;;;;;;6150135;23;20037;-69
2023/07/16 05:37:36;;;;;;;16.52;6.25;;;;;;;;;;6150044;23;20388;-68
2023/07/16 05:40:03;;;;;;;13.02;4.95;;;;;;;;;;6150009;22;20351;-69
2023/07/16 05:42:28;;;;;;;12.93;5.05;;;;;;;;;;6150631;23;20316;-69
2023/07/16 05:44:55;;;;;;;11.23;5.13;;;;;;;;;;6150193;23;20016;-69
2023/07/16 05:47:20;;;;;;;10.23;4.60;;;;;;;;;;6149853;23;20013;-69
2023/07/16 05:49:48;;;;;;;6.72;4.53;;;;;;;;;;6149869;23;20028;-70
2023/07/16 05:52:14;;;;;;;8.00;4.32;;;;;;;;;;6149836;23;20045;-69
2023/07/16 05:54:39;;;;;;;7.80;4.53;;;;;;;;;;6150396;22;20010;-68
2023/07/16 05:57:05;;;;;;;11.93;5.22;;;;;;;;;;6150155;23;20050;-70
2023/07/16 05:59:36;;;;;;;15.85;5.18;;;;;;;;;;6149669;23;20017;-69
2023/07/16 06:02:02;;;;;;;9.48;4.78;;;;;;;;;;6149992;23;20059;-69
2023/07/16 06:04:27;;;;;;;9.55;4.60;;;;;;;;;;6149916;22;20374;-69
2023/07/16 06:06:53;;;;;;;8.07;4.28;;;;;;;;;;6149697;23;20033;-69
2023/07/16 06:09:19;;;;;;;8.98;4.40;;;;;;;;;;6149285;23;20055;-70
2023/07/16 06:11:47;;;;;;;11.68;4.72;;;;;;;;;;6150409;22;20005;-69
2023/07/16 06:14:13;;;;;;;13.45;4.88;;;;;;;;;;6151306;22;20012;-69
2023/07/16 06:16:39;;;;;;;9.40;4.13;;;;;;;;;;6150876;23;20328;-69
2023/07/16 06:19:05;;;;;;;13.02;4.97;;;;;;;;;;6151332;23;20016;-69
2023/07/16 06:21:30;;;;;;;10.98;4.55;;;;;;;;;;6149659;22;20440;-69
2023/07/16 06:23:56;;;;;;;8.25;4.50;;;;;;;;;;6151551;23;20427;-70
2023/07/16 06:26:22;;;;;;;12.25;5.10;;;;;;;;;;6124908;23;20529;-69
2023/07/16 06:28:49;;;;;;;11.98;4.50;;;;;;;;;;6151453;23;20044;-69
2023/07/16 06:31:18;;;;;;;8.00;4.70;;;;;;;;;;6151386;23;20009;-69
2023/07/16 06:33:46;;;;;;;12.20;4.70;;;;;;;;;;6151002;23;20005;-69
2023/07/16 06:36:13;;;;;;;11.88;4.68;;;;;;;;;;6150895;23;20049;-69
2023/07/16 06:38:38;;;;;;;6.10;4.22;;;;;;;;;;6150893;23;20005;-69
2023/07/16 06:41:04;;;;;;;11.13;4.47;;;;;;;;;;6151148;23;20018;-69
2023/07/16 06:43:30;;;;;;;14.10;4.00;;;;;;;;;;6150804;22;20340;-69
2023/07/16 06:45:56;;;;;;;8.20;4.50;;;;;;;;;;6125066;23;20067;-69
2023/07/16 06:48:21;;;;;;;10.35;4.75;;;;;;;;;;6150835;23;20020;-69
2023/07/16 06:50:47;;;;;;;8.15;4.82;;;;;;;;;;6150917;23;20009;-69
2023/07/16 06:53:13;;;;;;;10.88;4.75;;;;;;;;;;6100675;23;20110;-69
2023/07/16 06:55:38;;;;;;;10.35;4.80;;;;;;;;;;6150757;23;20076;-69
2023/07/16 06:58:04;;;;;;;15.77;4.47;;;;;;;;;;6150747;23;20005;-68
2023/07/16 07:00:30;;;;;;;8.10;4.53;;;;;;;;;;6150808;23;20092;-69
2023/07/16 07:02:55;;;;;;;9.93;4.72;;;;;;;;;;6150622;23;19998;-69
2023/07/16 07:05:22;;;;;;;9.38;4.55;;;;;;;;;;6149445;23;20017;-68
2023/07/16 07:07:47;;;;;;;8.82;4.68;;;;;;;;;;6151005;23;20005;-69
2023/07/16 07:10:13;;;;;;;7.63;4.03;;;;;;;;;;6151032;23;20407;-68
2023/07/16 07:12:39;;;;;;;8.43;4.70;;;;;;;;;;6150129;23;20442;-69
2023/07/16 07:15:08;;;;;;;6.93;4.20;;;;;;;;;;6150077;23;20089;-69
2023/07/16 07:17:34;;;;;;;8.15;4.05;;;;;;;;;;6148699;23;20006;-69
2023/07/16 07:20:01;;;;;;;7.93;4.15;;;;;;;;;;6149561;23;20113;-69
2023/07/16 07:22:27;;;;;;;12.85;4.60;;;;;;;;;;6150708;23;20077;-69
2023/07/16 07:24:52;;;;;;;8.63;4.50;;;;;;;;;;6150509;22;20131;-70
2023/07/16 07:27:18;;;;;;;8.32;3.75;;;;;;;;;;6150370;23;20010;-70
2023/07/16 07:29:46;;;;;;;10.05;3.95;;;;;;;;;;6123827;23;20013;-70
2023/07/16 07:32:12;;;;;;;13.23;4.28;;;;;;;;;;6150760;23;20413;-69
2023/07/16 07:34:40;;;;;;;9.23;3.92;;;;;;;;;;6150830;23;20085;-70
2023/07/16 07:37:06;;;;;;;13.30;4.97;;;;;;;;;;6150508;23;20001;-69
2023/07/16 07:39:32;;;;;;;10.95;4.30;;;;;;;;;;6150493;22;20010;-70
2023/07/16 07:41:57;;;;;;;11.63;4.43;;;;;;;;;;6150090;23;20002;-70
2023/07/16 07:44:23;;;;;;;6.22;3.80;;;;;;;;;;6149227;23;20014;-70
2023/07/16 07:46:49;;;;;;;8.00;4.43;;;;;;;;;;6148836;22;20012;-69
2023/07/16 07:49:14;;;;;;;10.10;4.10;;;;;;;;;;6150574;23;20078;-69
2023/07/16 07:51:40;;;;;;;12.35;4.25;;;;;;;;;;6150576;23;20416;-71
2023/07/16 07:54:07;;;;;;;11.60;3.97;;;;;;;;;;6150442;23;20446;-69
2023/07/16 07:56:32;;;;;;;10.27;4.15;;;;;;;;;;6124663;23;20067;-70
2023/07/16 07:58:58;;;;;;;8.18;3.90;;;;;;;;;;6151015;23;20439;-70
2023/07/16 08:01:24;;;;;;;11.70;3.65;;;;;;;;;;6150261;23;20431;-70
2023/07/16 08:03:50;;;;;;;9.30;3.75;;;;;;;;;;6149917;23;20077;-70
2023/07/16 08:06:15;;;;;;;12.10;3.95;;;;;;;;;;6150230;23;20069;-69
2023/07/16 08:08:41;;;;;;;11.55;4.57;;;;;;;;;;6149668;23;20027;-70
2023/07/16 08:11:07;;;;;;;8.95;4.00;;;;;;;;;;6148775;23;20463;-69
2023/07/16 08:13:32;;;;;;;7.53;4.03;;;;;;;;;;6148671;23;20014;-70
2023/07/16 08:15:58;;;;;;;10.45;4.03;;;;;;;;;;6149951;23;20002;-69
2023/07/16 08:18:24;;;;;;;8.27;3.85;;;;;;;;;;6150865;23;20024;-69
2023/07/16 08:20:49;;;;;;;10.25;3.75;;;;;;;;;;6150376;23;20550;-70
2023/07/16 08:23:16;;;;;;;12.23;4.30;;;;;;;;;;6150289;23;20013;-68
2023/07/16 08:25:43;;;;;;;7.88;4.18;;;;;;;;;;6150331;22;20009;-69
2023/07/16 08:28:08;;;;;;;8.73;4.00;;;;;;;;;;6150457;22;20009;-70
2023/07/16 08:30:34;;;;;;;6.55;3.75;;;;;;;;;;6150735;23;20018;-70
2023/07/16 08:33:00;;;;;;;10.25;4.10;;;;;;;;;;6150099;23;20013;-70
2023/07/16 08:35:25;;;;;;;8.02;4.47;;;;;;;;;;6149937;23;20546;-70
2023/07/16 08:37:51;;;;;;;7.15;3.90;;;;;;;;;;6150537;23;20385;-69
2023/07/16 08:40:17;;;;;;;9.80;4.07;;;;;;;;;;6150499;23;20426;-69
2023/07/16 08:42:47;;;;;;;11.80;4.03;;;;;;;;;;6150177;23;20435;-70
2023/07/16 08:45:15;;;;;;;6.63;4.32;;;;;;;;;;6149805;23;20143;-70
2023/07/16 08:47:40;;;;;;;9.70;5.15;;;;;;;;;;6149936;23;20009;-70
2023/07/16 08:50:06;;;;;;;8.27;4.30;;;;;;;;;;6149637;23;20054;-69
2023/07/16 08:52:32;;;;;;;10.05;4.22;;;;;;;;;;6149931;23;20002;-69
2023/07/16 08:54:58;;;;;;;10.93;4.30;;;;;;;;;;6150359;23;20087;-69
2023/07/16 08:57:23;;;;;;;6.18;3.88;;;;;;;;;;6150773;23;20035;-67
2023/07/16 08:59:50;;;;;;;8.45;4.63;;;;;;;;;;6149112;23;20504;-69
2023/07/16 09:02:20;;;;;;;8.35;4.47;;;;;;;;;;6149105;23;20005;-68
2023/07/16 09:04:51;;;;;;;8.57;4.97;;;;;;;;;;6148319;23;20009;-69
2023/07/16 09:07:16;;;;;;;10.45;4.55;;;;;;;;;;6149730;23;20054;-69
2023/07/16 09:09:42;;;;;;;6.63;4.30;;;;;;;;;;6150114;23;20096;-69
2023/07/16 09:12:13;;;;;;;12.05;5.15;;;;;;;;;;6149496;23;20013;-70
2023/07/16 09:14:42;;;;;;;8.13;4.37;;;;;;;;;;6149960;23;20450;-71
2023/07/16 09:17:08;;;;;;;11.52;4.70;;;;;;;;;;6149785;23;20051;-70
2023/07/16 09:19:33;;;;;;;11.13;4.60;;;;;;;;;;6149662;23;20014;-69
2023/07/16 09:21:59;;;;;;;7.50;4.43;;;;;;;;;;6149637;23;20006;-71
2023/07/16 09:24:25;;;;;;;10.38;4.60;;;;;;;;;;6149131;23;20386;-70
2023/07/16 09:26:55;;;;;;;8.50;4.93;;;;;;;;;;6149106;23;20013;-71
2023/07/16 09:29:21;;;;;;;10.18;4.82;;;;;;;;;;6149737;23;20021;-70
2023/07/16 09:31:57;;;;;;;10.15;4.30;;;;;;;;;;6149331;23;20051;-71
2023/07/16 09:34:23;;;;;;;8.48;4.57;;;;;;;;;;6149375;23;20040;-70
2023/07/16 09:36:49;;;;;;;10.98;4.68;;;;;;;;;;6147588;23;20334;-71
2023/07/16 09:39:19;;;;;;;8.02;4.45;;;;;;;;;;6148620;22;20021;-71
2023/07/16 09:41:49;;;;;;;11.85;5.03;;;;;;;;;;6148167;23;20001;-71
2023/07/16 09:44:16;;;;;;;8.60;4.28;;;;;;;;;;6150488;23;20014;-70
2023/07/16 09:46:42;;;;;;;7.72;4.40;;;;;;;;;;6152900;22;20005;-70
2023/07/16 09:49:08;;;;;;;11.15;5.20;;;;;;;;;;6152238;23;20013;-70
2023/07/16 09:51:38;;;;;;;9.18;4.50;;;;;;;;;;6153286;23;20485;-70
2023/07/16 09:54:05;;;;;;;8.00;4.55;;;;;;;;;;6153311;23;20014;-70
2023/07/16 09:56:41;;;;;;;8.55;4.32;;;;;;;;;;6153149;23;20016;-70
2023/07/16 09:59:11;;;;;;;8.82;4.78;;;;;;;;;;6153543;22;20013;-70
2023/07/16 10:01:40;;;;;;;7.88;4.63;;;;;;;;;;6153548;23;20335;-71
2023/07/16 10:04:19;;;;;;;7.53;5.07;;;;;;;;;;6153135;23;20010;-70
2023/07/16 10:06:54;;;;;;;10.75;4.75;;;;;;;;;;6153050;23;20343;-70
2023/07/16 10:09:41;;;;;;;10.73;4.88;;;;;;;;;;6153489;22;20022;-70
2023/07/16 10:12:15;;;;;;;9.48;4.70;;;;;;;;;;6153218;23;20012;-70
2023/07/16 10:14:46;;;;;;;10.05;5.15;;;;;;;;;;6153442;23;20006;-71
2023/07/16 10:17:16;;;;;;;8.57;4.88;;;;;;;;;;6153394;23;20013;-70
2023/07/16 10:19:49;;;;;;;8.02;5.50;;;;;;;;;;6153179;23;20013;-69
2023/07/16 10:22:15;;;;;;;8.23;4.90;;;;;;;;;;6153028;23;20024;-70
2023/07/16 10:24:41;;;;;;;14.70;5.30;;;;;;;;;;6152974;23;20085;-69
2023/07/16 10:27:07;;;;;;;8.95;4.97;;;;;;;;;;6153440;23;20010;-70
2023/07/16 10:29:33;;;;;;;11.77;5.20;;;;;;;;;;6153059;23;20005;-71
2023/07/16 10:31:58;;;;;;;14.10;5.20;;;;;;;;;;6152984;23;20005;-71
2023/07/16 10:34:26;;;;;;;9.63;4.95;;;;;;;;;;6153142;23;20083;-71
2023/07/16 10:36:51;;;;;;;11.25;5.35;;;;;;;;;;6152912;23;20063;-70
2023/07/16 10:39:17;;;;;;;10.05;4.78;;;;;;;;;;6153636;23;20012;-70
2023/07/16 10:41:43;;;;;;;8.88;4.57;;;;;;;;;;6152955;23;20045;-70
2023/07/16 10:44:09;;;;;;;11.65;5.80;;;;;;;;;;6152539;23;20093;-71
2023/07/16 10:46:37;;;;;;;11.40;4.65;;;;;;;;;;6152792;23;20394;-71
2023/07/16 10:49:02;;;;;;;9.60;4.78;;;;;;;;;;6152978;23;20339;-71
2023/07/16 10:51:28;;;;;;;12.13;5.22;;;;;;;;;;6152596;23;20006;-70
2023/07/16 10:53:57;;;;;;;13.55;4.85;;;;;;;;;;6152425;23;20012;-70
2023/07/16 10:56:23;;;;;;;11.45;4.78;;;;;;;;;;6151556;23;20013;-71
2023/07/16 10:58:49;;;;;;;13.20;4.90;;;;;;;;;;6150391;23;20001;-70
2023/07/16 11:01:15;;;;;;;10.20;4.97;;;;;;;;;;6150962;23;20013;-71
2023/07/16 11:03:41;;;;;;;9.52;5.07;;;;;;;;;;6150863;23;20299;-71
2023/07/16 11:06:08;;;;;;;10.90;5.15;;;;;;;;;;6124868;23;20013;-71
2023/07/16 11:08:33;;;;;;;12.20;4.85;;;;;;;;;;6151136;23;20005;-71
2023/07/16 11:10:59;;;;;;;8.32;4.63;;;;;;;;;;6150776;23;20031;-71
2023/07/16 11:13:30;;;;;;;12.25;5.47;;;;;;;;;;6150264;23;20005;-71
2023/07/16 11:15:56;;;;;;;12.05;5.25;;;;;;;;;;6151003;23;20011;-71
2023/07/16 11:18:24;;;;;;;9.43;4.50;;;;;;;;;;6149153;23;20009;-71
2023/07/16 11:20:52;;;;;;;8.25;4.43;;;;;;;;;;6150628;23;20009;-71
2023/07/16 11:23:18;;;;;;;10.98;4.75;;;;;;;;;;6150511;23;19997;-71
2023/07/16 11:25:52;;;;;;;9.55;4.60;;;;;;;;;;6150759;23;20447;-71
2023/07/16 11:28:17;;;;;;;10.65;4.50;;;;;;;;;;6125033;23;20041;-71
2023/07/16 11:30:44;;;;;;;11.30;4.53;;;;;;;;;;6150379;23;20501;-71
2023/07/16 11:33:11;;;;;;;9.32;4.15;;;;;;;;;;6150816;23;20048;-71
2023/07/16 11:35:37;;;;;;;7.13;4.00;;;;;;;;;;6151020;23;20009;-71
2023/07/16 11:38:06;;;;;;;11.23;4.82;;;;;;;;;;6150972;23;20009;-70
2023/07/16 11:40:35;;;;;;;7.40;4.53;;;;;;;;;;6150315;23;20005;-71
2023/07/16 11:43:11;;;;;;;7.93;4.82;;;;;;;;;;6150541;23;20026;-70
2023/07/16 11:45:38;;;;;;;11.38;5.10;;;;;;;;;;6151066;23;20335;-71
2023/07/16 11:48:04;;;;;;;11.90;5.00;;;;;;;;;;6150536;23;20005;-71
2023/07/16 11:50:31;;;;;;;8.63;4.22;;;;;;;;;;6150787;23;20005;-70
2023/07/16 11:53:00;;;;;;;7.07;4.40;;;;;;;;;;6150902;23;20015;-71
2023/07/16 11:55:27;;;;;;;6.95;4.00;;;;;;;;;;6151218;23;20265;-71
2023/07/16 11:57:52;;;;;;;9.65;3.83;;;;;;;;;;6150636;23;20001;-70
2023/07/16 12:00:19;;;;;;;7.22;4.43;;;;;;;;;;6124836;23;20014;-71
2023/07/16 12:02:50;;;;;;;9.23;4.82;;;;;;;;;;6150925;23;20012;-71
2023/07/16 12:05:18;;;;;;;10.27;4.15;;;;;;;;;;6124731;23;20024;-71
2023/07/16 12:07:43;;;;;;;12.88;4.28;;;;;;;;;;6151141;23;20029;-70
2023/07/16 12:10:09;;;;;;;8.63;4.75;;;;;;;;;;6150641;23;20343;-72
2023/07/16 12:12:38;;;;;;;8.73;4.25;;;;;;;;;;6150340;23;20006;-71
2023/07/16 12:15:05;;;;;;;8.95;4.90;;;;;;;;;;6150580;23;20074;-71
2023/07/16 12:17:31;;;;;;;11.35;4.80;;;;;;;;;;6150955;22;20005;-71
2023/07/16 12:19:56;;;;;;;10.02;4.28;;;;;;;;;;6150345;23;20014;-72
2023/07/16 12:22:23;;;;;;;10.95;4.45;;;;;;;;;;6150211;23;20008;-71
2023/07/16 12:24:49;;;;;;;8.23;4.00;;;;;;;;;;6151126;23;20014;-71
2023/07/16 12:27:18;;;;;;;6.45;3.63;;;;;;;;;;6150629;23;20028;-71
2023/07/16 12:29:44;;;;;;;10.68;4.10;;;;;;;;;;6150490;22;20013;-70
2023/07/16 12:32:10;;;;;;;7.60;4.30;;;;;;;;;;6150294;23;20002;-71
2023/07/16 12:34:36;;;;;;;13.52;4.40;;;;;;;;;;6173774;22;20088;-71
2023/07/16 12:37:03;;;;;;;6.20;4.07;;;;;;;;;;6150803;23;20013;-71
2023/07/16 12:39:29;;;;;;;11.13;4.53;;;;;;;;;;6150383;23;20013;-70
2023/07/16 12:41:54;;;;;;;7.32;4.40;;;;;;;;;;6150333;22;20326;-70
2023/07/16 12:44:21;;;;;;;8.07;3.70;;;;;;;;;;6150272;23;20017;-71
2023/07/16 12:46:46;;;;;;;9.23;3.88;;;;;;;;;;6150143;23;20006;-71
2023/07/16 12:49:13;;;;;;;13.93;4.00;;;;;;;;;;6150230;23;20024;-71
2023/07/16 12:51:39;;;;;;;9.30;4.00;;;;;;;;;;6149580;23;20069;-71
2023/07/16 12:54:05;;;;;;;12.25;4.07;;;;;;;;;;6150328;23;20010;-71
2023/07/16 12:56:31;;;;;;;6.78;3.80;;;;;;;;;;6150429;23;20005;-71
2023/07/16 12:58:56;;;;;;;7.75;3.97;;;;;;;;;;6150424;23;20402;-70
2023/07/16 13:01:22;;;;;;;6.60;3.50;;;;;;;;;;6149800;23;20002;-71
2023/07/16 13:03:48;;;;;;;8.50;3.63;;;;;;;;;;6124356;23;20062;-71
2023/07/16 13:06:13;;;;;;;10.90;4.50;;;;;;;;;;6150058;23;20316;-71
2023/07/16 13:08:39;;;;;;;10.02;4.03;;;;;;;;;;6149874;23;20021;-71
2023/07/16 13:11:05;;;;;;;7.63;3.42;;;;;;;;;;6150125;23;20008;-71
2023/07/16 13:13:31;;;;;;;4.20;3.30;;;;;;;;;;6149914;23;20014;-71
2023/07/16 13:15:57;;;;;;;7.88;3.90;;;;;;;;;;6150094;23;20085;-71
2023/07/16 13:18:22;;;;;;;9.25;3.90;;;;;;;;;;6150375;23;20013;-71
2023/07/16 13:20:48;;;;;;;6.75;3.53;;;;;;;;;;6149982;23;20032;-71
2023/07/16 13:23:14;;;;;;;7.57;3.63;;;;;;;;;;6149965;23;20339;-71
2023/07/16 13:25:40;;;;;;;6.95;3.40;;;;;;;;;;6150744;23;20008;-72
2023/07/16 13:28:06;;;;;;;6.43;3.38;;;;;;;;;;6150248;23;20453;-70
2023/07/16 13:30:33;;;;;;;5.18;3.20;;;;;;;;;;6150173;23;20002;-71
2023/07/16 13:33:01;;;;;;;4.78;2.97;;;;;;;;;;6149963;23;20061;-71
2023/07/16 13:35:26;;;;;;;5.70;3.40;;;;;;;;;;6150132;23;20454;-72
2023/07/16 13:37:52;;;;;;;7.10;3.10;;;;;;;;;;6150111;23;20009;-71
2023/07/16 13:40:19;;;;;;;9.43;3.75;;;;;;;;;;6149501;23;20333;-71
2023/07/16 13:42:47;;;;;;;6.03;3.42;;;;;;;;;;6149505;23;20399;-71
2023/07/16 13:45:13;;;;;;;4.80;3.22;;;;;;;;;;6149408;23;20016;-71
2023/07/16 13:47:39;;;;;;;4.97;3.30;;;;;;;;;;6123356;23;20059;-70
2023/07/16 13:50:05;;;;;;;6.85;3.33;;;;;;;;;;6149725;22;20033;-70
2023/07/16 13:52:30;;;;;;;7.00;3.28;;;;;;;;;;6149838;23;20063;-71
2023/07/16 13:54:56;;;;;;;9.07;3.17;;;;;;;;;;6150148;23;20009;-71
2023/07/16 13:57:22;;;;;;;4.20;2.92;;;;;;;;;;6149896;23;20346;-71
2023/07/16 13:59:47;;;;;;;4.05;2.60;;;;;;;;;;6148314;23;20001;-70
2023/07/16 14:02:13;;;;;;;7.78;3.47;;;;;;;;;;6148153;23;20014;-71
2023/07/16 14:04:39;;;;;;;5.80;3.00;;;;;;;;;;6147850;23;20010;-71
2023/07/16 14:07:05;;;;;;;8.35;3.53;;;;;;;;;;6149600;23;20084;-70
2023/07/16 14:09:30;;;;;;;4.20;2.95;;;;;;;;;;6123316;23;20406;-70
2023/07/16 14:11:56;;;;;;;6.90;3.25;;;;;;;;;;6148858;23;20237;-71
2023/07/16 14:14:22;;;;;;;7.38;2.83;;;;;;;;;;6149726;23;20101;-71
2023/07/16 14:16:48;;;;;;;5.28;2.90;;;;;;;;;;6149692;23;20014;-71
2023/07/16 14:19:14;;;;;;;6.97;2.85;;;;;;;;;;6149731;23;20032;-71
2023/07/16 14:21:40;;;;;;;8.27;3.35;;;;;;;;;;6147700;23;20016;-72
2023/07/16 14:24:06;;;;;;;6.85;3.20;;;;;;;;;;6148151;22;20006;-71
2023/07/16 14:26:33;;;;;;;7.28;3.65;;;;;;;;;;6147433;23;20241;-71
2023/07/16 14:28:59;;;;;;;5.97;4.25;;;;;;;;;;6121619;23;20025;-71
2023/07/16 14:31:25;;;;;;;10.50;4.70;;;;;;;;;;6147707;23;20454;-72
2023/07/16 14:33:51;;;;;;;9.20;5.85;;;;;;;;;;6149957;22;20013;-71